Hicksville, Virginia
Current Conditions -  °F | °C
As of 5:34 AM on Wednesday 22 Oct 2014 (Local Time) from KBLF Reporting Station
Overcast Overcast  
Wind Chill: 36°   Ceiling: 800
Heat Index: 41°   Visibility: 10mi
Dew Point: 37°   Wind: 7mph
Humidity: 86%   Direction: 300°WNW
Pressure: 30.06"   Gusts: NA
Location:  37.1593°N, 81.1986°W
Report Text: KBLF 220934Z AUTO 30006KT 10SM BKN008 BKN013 OVC020 05/03 A3006 RMK AO2 RAB04E21 CIG 006V011 P0000 T00500028
Loading
Personal Weather Stations






























Interactive Weather Map
Tropical Storm Tracking
New forecast layout! Learn more

10-Day Weather Forecast

Advertisements
Track Severe Weather on mobile